Tiempo atmosférico en la estación meteorológica de Sitges, Barcelona (54 m.)



Fecha
DESCASC
Temp. máxima en grados centígrados (hora)
DESCASC
Temp. mínima en grados centígrados (hora)
DESCASC
Temp. media en grados centígrados
DESCASC
Racha de viento máxima en m/sg (hora)
DESCASC
Velocidad máxima media en intervalos de 10 minutos(hora)
DESCASC
Precipitaciones diarias en mm
DESCASC
Precipitaciones de 00:00 a 06:00 en mm
DESCASC
Precipitaciones de 06:00 a 12:00 en mm
DESCASC
Precipitaciones de 12:00 a 18:00 en mm
DESCASC
Precipitaciones de 18:00 a 24:00 en mm
DESCASC
25-04-2019 17.9 (12:30) 11.4 (23:10) 14.6 6.11 (01:40) 2.78 (15:20) 0.8 0 0 0.6 0.2
24-04-2019 18.5 (14:00) 10.6 (07:20) 14.6 8.33 (13:30) 3.33 (12:40) 0 0 0 0 0
23-04-2019 19.5 (15:00) 13.3 (23:30) 16.4 6.11 (14:00) 3.06 (16:40) 0.2 0 0.2 0 0
22-04-2019 18.6 (11:10) 15.6 (00:00) 17.1 12.22 (05:10) 5.83 (05:30) 0 0 0 0 0
21-04-2019 19.6 (15:40) 11.8 (00:00) 15.7 14.44 (13:00) 6.11 (12:00) 0.6 0.6 0 0 0
20-04-2019 18.8 (14:50) 14.1 (00:00) 16.4 15 (14:50) 6.11 (14:30) 0.2 0 0 0.2 0
19-04-2019 20.4 (15:40) 15.6 (00:00) 18 19.44 (16:50) 8.06 (15:30) 0 0 0 0 0
18-04-2019 18.9 (14:50) 13.5 (00:00) 16.2 18.06 (18:40) 8.61 (18:00) 0 0 0 0 0
17-04-2019 16.6 (14:50) 8.8 (00:00) 12.7 6.67 (21:20) 3.06 (13:30) 0 0 0 0 0
16-04-2019 16.8 (12:40) 10 (00:00) 13.4 8.61 (15:30) 4.72 (13:50) 0 0 0 0 0
15-04-2019 15.5 (11:40) 9.1 (00:00) 12.3 8.06 (15:30) 4.72 (12:00) 0 0 0 0 0
14-04-2019 17.1 (11:30) 8.4 (00:00) 12.8 9.72 (16:50) 5.28 (13:00) 0 0 0 0 0
13-04-2019 17.8 (11:20) 10 (00:00) 13.9 6.11 (14:20) 3.33 (11:40) 0 0 0 0 0
12-04-2019 18.5 (14:20) 10.8 (00:00) 14.7 10.56 (07:20) 5.56 (07:10) 0 0 0 0 0
11-04-2019 21 (14:50) 8.3 (00:00) 14.7 8.89 (12:00) 4.17 (12:20) 0 0 0 0 0
10-04-2019 19.3 (16:00) 9.7 (00:00) 14.5 8.89 (07:50) 3.89 (12:30) 0.8 0 0 0.6 0.2
09-04-2019 16.5 (10:50) 9.8 (00:00) 13.2 6.39 (10:40) 3.61 (13:30) 0.6 0.6 0 0 0
08-04-2019 18.2 (15:40) 7.6 (00:00) 12.9 7.5 (15:30) 3.89 (18:10) 0.2 0 0.2 0 0
07-04-2019 17.2 (13:50) 7.4 (00:00) 12.3 7.78 (12:00) 4.17 (01:10) 2.6 0 0 0 2.6
06-04-2019 17 (16:30) 6.5 (00:00) 11.8 9.72 (11:50) 4.72 (11:50) 3.2 3 0.2 0 0
05-04-2019 15.7 (16:00) 6.7 (00:00) 11.2 10.28 (21:40) 5.56 (21:50) 11 0 0 1.2 9.8
04-04-2019 17.4 (17:10) 4.1 (00:00) 10.7 8.33 (20:10) 3.89 (20:20) 0 0 0 0 0
03-04-2019 16.9 (14:30) 7.5 (00:00) 12.2 6.39 (18:10) 3.33 (18:10) 2.4 0 0 0 2.4
02-04-2019 17.3 (17:20) 11.1 (00:00) 14.2 7.22 (13:50) 2.78 (12:40) 0 0 0 0 0
01-04-2019 17.3 (13:30) 9.5 (00:00) 13.4 5.28 (15:10) 3.61 (15:10) 0 0 0 0 0
31-03-2019 16.6 (14:00) 9.4 (00:00) 13 11.39 (16:20) 5.28 (16:20) 0 0 0 0 0
30-03-2019 15.6 (11:30) 6.5 (00:00) 11.1 8.89 (12:40) 5 (13:00) 0 0 0 0 0
29-03-2019 16 (13:10) 7.5 (00:00) 11.8 6.11 (15:10) 3.61 (11:30) 0 0 0 0 0
28-03-2019 16.9 (11:40) 6 (00:00) 11.4 5.56 (13:30) 3.61 (11:00) 0 0 0 0 0
27-03-2019 16.9 (10:50) 6.1 (00:00) 11.5 7.5 (13:30) 4.17 (16:00) 0 0 0 0 0

Gráficas

Temp. máximas Temp. mínimas Temp. medias Precipitaciones Rachas de viento máximas Velocidades máximas media en intervalos de 10 minutos

Datos horarios

Fecha y hora oficial Temperatura (ºC) Velocidad del viento (km/h) Dirección del viento Racha (km/h) Dirección de racha Precipitación (mm) Presión (hPa) Tendencia (hPa) Humedad (%)
2019-04-25 23:00:00 11.5 4 Noroeste 8 Norte 0 -- -- 73
2019-04-25 22:00:00 13.1 4 Noroeste 9 Noroeste 0 -- -- 83
2019-04-25 21:00:00 14.2 4 Oeste 10 Noroeste 0.2 -- -- 87
2019-04-25 20:00:00 15.4 3 Noroeste 20 Norte 0 -- -- 82
2019-04-25 19:00:00 17.3 4 Norte 10 Norte 0 -- -- 77
2019-04-25 18:00:00 16.4 3 Este 15 Sudeste 0 -- -- 86
2019-04-25 17:00:00 15.9 6 Sudeste 13 Sudeste 0 -- -- 85
2019-04-25 16:00:00 15.3 4 Sur 19 Sudeste 0.6 -- -- 85
2019-04-25 15:00:00 16.4 7 Sudeste 13 Sudeste 0 -- -- 89
2019-04-25 14:00:00 16.3 5 Sudeste 17 Noroeste 0 -- -- 85
2019-04-25 13:00:00 17.1 5 Sur 14 Sur 0 -- -- 79
2019-04-25 12:00:00 16.9 5 Sudoeste 13 Sudeste 0 -- -- 80
2019-04-25 11:00:00 16.9 4 Nordeste 9 Nordeste 0 -- -- 80
2019-04-25 10:00:00 15.7 3 Nordeste 9 Este 0 -- -- 85
2019-04-25 09:00:00 15.4 2 Este 14 Norte 0 -- -- 85
2019-04-25 08:00:00 14.9 2 Nordeste 10 Norte 0 -- -- 86
2019-04-25 07:00:00 14.7 0 Calma 7 Norte 0 -- -- 86
2019-04-25 06:00:00 14.7 2 Nordeste 14 Este 0 -- -- 86
2019-04-25 05:00:00 14.7 4 Este 11 Sudeste 0 -- -- 85
2019-04-25 04:00:00 14.7 4 Este 15 Sudeste 0 -- -- 85
2019-04-25 03:00:00 14.8 4 Sudeste 18 Sudeste 0 -- -- 85
2019-04-25 02:00:00 14.8 3 Sudeste 22 Sudoeste 0 -- -- 84
2019-04-25 01:00:00 14.8 6 Este 18 Este 0 -- -- 84
2019-04-25 00:00:00 14.6 5 Sudeste 17 Sudeste 0 -- -- 84
2019-04-24 23:00:00 14.1 4 Este 17 Sudeste 0 -- -- 84
2019-04-24 22:00:00 12.8 0 Calma 6 Este 0 -- -- 80
2019-04-24 21:00:00 14 3 Nordeste 10 Norte 0 -- -- 74
2019-04-24 20:00:00 15.5 3 Noroeste 12 Noroeste 0 -- -- 68
2019-04-24 19:00:00 17 2 Norte 17 Norte 0 -- -- 62
2019-04-24 18:00:00 17.1 5 Sudeste 17 Este 0 -- -- 59
2019-04-24 17:00:00 17.8 3 Nordeste 20 Norte 0 -- -- 58
2019-04-24 16:00:00 17.5 8 Norte 21 Norte 0 -- -- 56
2019-04-24 15:00:00 17 6 Nordeste 26 Norte 0 -- -- 56
2019-04-24 14:00:00 18.5 8 Norte 30 Sudeste 0 -- -- 55
2019-04-24 13:00:00 16.3 9 Oeste 24 Oeste 0 -- -- 63
2019-04-24 12:00:00 16 10 Oeste 25 Sudeste 0 -- -- 62
2019-04-24 11:00:00 16.3 8 Este 21 Sudeste 0 -- -- 52
2019-04-24 10:00:00 15.9 5 Este 21 Norte 0 -- -- 50
2019-04-24 09:00:00 14.1 9 Norte 18 Noroeste 0 -- -- 54
2019-04-24 08:00:00 11.9 3 Norte 9 Noroeste 0 -- -- 77
2019-04-24 07:00:00 10.8 0 Calma 4 Noroeste 0 -- -- 93
2019-04-24 06:00:00 11.6 0 Calma 4 Noroeste 0 -- -- 91
2019-04-24 05:00:00 12.6 2 Oeste 6 Norte 0 -- -- 87
2019-04-24 04:00:00 14.5 4 Norte 12 Noroeste 0 -- -- 82
2019-04-24 03:00:00 14.7 4 Nordeste 11 Este 0 -- -- 84
2019-04-24 02:00:00 14.6 3 Este 12 Norte 0 -- -- 83
2019-04-24 01:00:00 14 0 Calma 7 Nordeste 0 -- -- 86
2019-04-24 00:00:00 13.3 0 Calma 5 Oeste 0 -- -- 87
2019-04-23 23:00:00 14 2 Oeste 5 Noroeste 0 -- -- 85
2019-04-23 22:00:00 14.1 2 Noroeste 4 Oeste 0 -- -- 88
2019-04-23 21:00:00 14.4 0 Calma 8 Sudeste 0 -- -- 83
2019-04-23 20:00:00 15.7 3 Sudeste 13 Sudeste 0 -- -- 81
2019-04-23 19:00:00 16 4 Este 15 Sudeste 0 -- -- 80
2019-04-23 18:00:00 16.5 7 Sudeste 15 Sudeste 0 -- -- 83
2019-04-23 17:00:00 16.8 11 Sudeste 21 Sudeste 0 -- -- 79
2019-04-23 16:00:00 17.7 8 Sudeste 19 Sudeste 0 -- -- 72
2019-04-23 15:00:00 19.5 6 Norte 18 Norte 0 -- -- 56
2019-04-23 14:00:00 19.4 10 Norte 22 Noroeste 0 -- -- 57
2019-04-23 13:00:00 18.2 6 Norte 14 Noroeste 0 -- -- 65
2019-04-23 12:00:00 15.9 3 Norte 15 Sur 0.2 -- -- 81
2019-04-23 11:00:00 16.7 3 Sur 12 Noroeste 0 -- -- 68
2019-04-23 10:00:00 15.8 7 Noroeste 13 Norte 0 -- -- 73
2019-04-23 09:00:00 15.2 0 Calma 10 Noroeste 0 -- -- 73
2019-04-23 08:00:00 15.1 2 Sudeste 14 Noroeste 0 -- -- 73
2019-04-23 07:00:00 15.3 4 Norte 12 Noroeste 0 -- -- 70
2019-04-23 06:00:00 15.3 4 Noroeste 10 Norte 0 -- -- 70
2019-04-23 05:00:00 15.2 5 Norte 11 Noroeste 0 -- -- 71
2019-04-23 04:00:00 14.3 4 Noroeste 14 Noroeste 0 -- -- 77
2019-04-23 03:00:00 14.3 3 Noroeste 5 Noroeste 0 -- -- 85
2019-04-23 02:00:00 15.3 0 Calma 7 Sudeste 0 -- -- 73
2019-04-23 01:00:00 15.7 4 Este 13 Noroeste 0 -- -- 65
2019-04-23 00:00:00 16.1 5 Noroeste 15 Oeste 0 -- -- 62
2019-04-22 23:00:00 16.4 6 Noroeste 22 Noroeste 0 -- -- 60
2019-04-22 22:00:00 16.6 5 Sudoeste 15 Sudeste 0 -- -- 59
2019-04-22 21:00:00 16.9 9 Sur 28 Sudeste 0 -- -- 60
2019-04-22 20:00:00 17 9 Sudeste 22 Sudeste 0 -- -- 59
2019-04-22 19:00:00 17.2 5 Sudeste 23 Sudeste 0 -- -- 61
2019-04-22 18:00:00 16.8 3 Sudeste 17 Nordeste 0 -- -- 65
2019-04-22 17:00:00 17.4 4 Sur 22 Sur 0 -- -- 58
2019-04-22 16:00:00 17.2 9 Sudeste 24 Sudeste 0 -- -- 59
2019-04-22 15:00:00 16.5 9 Sudeste 36 Sudeste 0 -- -- 67
2019-04-22 14:00:00 17.3 13 Sudeste 33 Sudeste 0 -- -- 60
2019-04-22 13:00:00 18 10 Este 41 Sudeste 0 -- -- 58
2019-04-22 12:00:00 17.7 14 Sur 35 Sudeste 0 -- -- 56
2019-04-22 11:00:00 18.5 12 Sudeste 30 Este 0 -- -- 51
2019-04-22 10:00:00 16 13 Sudeste 31 Este 0 -- -- 61
2019-04-22 09:00:00 15.7 10 Sur 36 Sudeste 0 -- -- 65
2019-04-22 08:00:00 15.9 14 Sudeste 38 Sudeste 0 -- -- 60
2019-04-22 07:00:00 16.5 14 Sudeste 43 Sudeste 0 -- -- 52
2019-04-22 06:00:00 16.1 17 Sudeste 44 Este 0 -- -- 58
2019-04-22 05:00:00 16 17 Sudeste 35 Sudeste 0 -- -- 58
2019-04-22 04:00:00 16.2 13 Sudeste 37 Este 0 -- -- 56
2019-04-22 03:00:00 16.5 15 Sudeste 41 Sudeste 0 -- -- 52
2019-04-22 02:00:00 17.1 17 Sudeste 41 Este 0 -- -- 47
2019-04-22 01:00:00 16.7 16 Sudeste 40 Este 0 -- -- 52
2019-04-22 00:00:00 16.8 18 Este 37 Este 0 -- -- 52
2019-04-21 23:00:00 16.3 15 Sudeste 35 Sudeste 0 -- -- 59
2019-04-21 22:00:00 16.6 14 Sudeste 35 Sudeste 0 -- -- 57
2019-04-21 21:00:00 16.8 11 Sudeste 32 Sudeste 0 -- -- 57
2019-04-21 20:00:00 16.5 10 Sudeste 30 Este 0 -- -- 66
2019-04-21 19:00:00 16.6 18 Sudeste 39 Sudeste 0 -- -- 65
2019-04-21 18:00:00 17.6 14 Sudeste 40 Sudeste 0 -- -- 60
2019-04-21 17:00:00 18.6 17 Sudeste 48 Sudeste 0 -- -- 51
2019-04-21 16:00:00 19.5 16 Sudeste 51 Sur 0 -- -- 45
2019-04-21 15:00:00 19 18 Sudeste 44 Sudeste 0 -- -- 48
2019-04-21 14:00:00 18.7 13 Sudeste 45 Este 0 -- -- 46
2019-04-21 13:00:00 18.2 22 Este 52 Este 0 -- -- 52
2019-04-21 12:00:00 17.3 22 Sudeste 48 Sudeste 0 -- -- 55
2019-04-21 11:00:00 18 16 Sudeste 50 Sudeste 0 -- -- 52
2019-04-21 10:00:00 17.8 13 Sudeste 39 Sudeste 0 -- -- 49
2019-04-21 09:00:00 16.8 10 Sur 30 Sudeste 0 -- -- 48
2019-04-21 08:00:00 15.9 7 Sur 36 Sudeste 0 -- -- 51
2019-04-21 07:00:00 16 14 Sur 45 Este 0 -- -- 52
2019-04-21 06:00:00 15.6 13 Sudeste 34 Sur 0 -- -- 55
2019-04-21 05:00:00 14.9 10 Sudeste 31 Sur 0 -- -- 57
2019-04-21 04:00:00 13.9 12 Sur 26 Sudeste 0 -- -- 63
2019-04-21 03:00:00 12.3 8 Sur 25 Sur 0 -- -- 74
2019-04-21 02:00:00 12.1 4 Oeste 27 Sur 0.6 -- -- 79
2019-04-21 01:00:00 13.8 14 Sur 33 Sur 0 -- -- 63
2019-04-21 00:00:00 14.1 15 Sur 35 Sudeste 0 -- -- 63
2019-04-20 23:00:00 14.7 16 Sur 39 Sudoeste 0 -- -- 59
2019-04-20 22:00:00 14.6 12 Sudoeste 34 Sudeste 0 -- -- 60
2019-04-20 21:00:00 15 16 Sudeste 37 Sur 0 -- -- 59
2019-04-20 20:00:00 16.6 15 Sur 42 Sudeste 0 -- -- 49
2019-04-20 19:00:00 16.9 17 Sur 53 Sudeste 0 -- -- 47
2019-04-20 18:00:00 16.8 15 Sudeste 50 Sudeste 0.2 -- -- 48
2019-04-20 17:00:00 17.7 18 Sudeste 51 Sudeste 0 -- -- 45
2019-04-20 16:00:00 18.4 21 Sudeste 47 Este 0 -- -- 40
2019-04-20 15:00:00 18.8 16 Sudeste 54 Sudeste 0 -- -- 37
2019-04-20 14:00:00 18.3 17 Este 53 Este 0 -- -- 40
2019-04-20 13:00:00 18.2 15 Sudeste 52 Sudeste 0 -- -- 43
2019-04-20 12:00:00 17.5 15 Sudeste 51 Este 0 -- -- 50
2019-04-20 11:00:00 18.5 17 Sudeste 44 Sudeste 0 -- -- 39
2019-04-20 10:00:00 18.3 15 Este 44 Sur 0 -- -- 39
2019-04-20 09:00:00 18.1 17 Sudeste 48 Este 0 -- -- 38
2019-04-20 08:00:00 17.8 17 Sudeste 44 Sudeste 0 -- -- 41
2019-04-20 07:00:00 17.6 16 Sudeste 47 Este 0 -- -- 44
2019-04-20 06:00:00 17.4 16 Sudeste 44 Sudeste 0 -- -- 45
2019-04-20 05:00:00 17.2 13 Sudeste 40 Sudeste 0 -- -- 45
2019-04-20 04:00:00 17.1 10 Sudeste 35 Este 0 -- -- 46
2019-04-20 03:00:00 17.2 16 Sudeste 42 Sudeste 0 -- -- 46
2019-04-20 02:00:00 17.1 15 Sudeste 46 Sudeste 0 -- -- 48
2019-04-20 01:00:00 17.1 18 Este 48 Este 0 -- -- 48
2019-04-20 00:00:00 16.8 15 Este 45 Sudeste 0 -- -- 53
2019-04-19 23:00:00 17 12 Sudeste 39 Sudeste 0 -- -- 51
2019-04-19 22:00:00 17.7 11 Sudeste 39 Sudeste 0 -- -- 49
2019-04-19 21:00:00 18 15 Sudeste 44 Sudeste 0 -- -- 51
2019-04-19 20:00:00 17.2 17 Sudeste 42 Sudeste 0 -- -- 60
2019-04-19 19:00:00 17.8 18 Sudeste 58 Este 0 -- -- 56
2019-04-19 18:00:00 18.9 20 Sudeste 53 Este 0 -- -- 48
2019-04-19 17:00:00 18.6 27 Sudeste 70 Sudeste 0 -- -- 46
2019-04-19 16:00:00 19.9 24 Sudeste 62 Sudeste 0 -- -- 47
2019-04-19 15:00:00 19.9 25 Sudeste 60 Sur 0 -- -- 46
2019-04-19 14:00:00 19.8 19 Sudeste 50 Sudeste 0 -- -- 49
2019-04-19 13:00:00 20.1 24 Sudeste 56 Este 0 -- -- 47
2019-04-19 12:00:00 19.9 19 Sudeste 56 Sudeste 0 -- -- 44
2019-04-19 11:00:00 18.5 20 Sudeste 56 Sudeste 0 -- -- 52
2019-04-19 10:00:00 16.9 21 Sudeste 46 Este 0 -- -- 61
2019-04-19 09:00:00 16.6 16 Sudeste 49 Sudeste 0 -- -- 60
2019-04-19 08:00:00 16 18 Sudeste 43 Sudeste 0 -- -- 62
2019-04-19 07:00:00 15.8 14 Sudeste 38 Sudeste 0 -- -- 63
2019-04-19 06:00:00 15.9 13 Sudeste 40 Sudeste 0 -- -- 63
2019-04-19 05:00:00 15.6 12 Sudeste 37 Sudeste 0 -- -- 66
2019-04-19 04:00:00 15.8 21 Este 41 Este 0 -- -- 64
2019-04-19 03:00:00 16 14 Sudeste 44 Este 0 -- -- 63
2019-04-19 02:00:00 16.3 15 Sudeste 45 Sudeste 0 -- -- 61
2019-04-19 01:00:00 16.4 20 Sudeste 49 Sudeste 0 -- -- 57
2019-04-19 00:00:00 16.1 20 Sudeste 44 Este 0 -- -- 61
2019-04-18 23:00:00 15.9 18 Sudeste 50 Sudeste 0 -- -- 62
2019-04-18 22:00:00 15.9 16 Sudeste 49 Sudeste 0 -- -- 63
2019-04-18 21:00:00 16.2 18 Sudeste 53 Sudeste 0 -- -- 64
2019-04-18 20:00:00 16.9 17 Sudeste 43 Sudeste 0 -- -- 57
2019-04-18 19:00:00 17.3 21 Sudeste 65 Sudeste 0 -- -- 56
2019-04-18 18:00:00 17.3 31 Sudeste 59 Sudeste 0 -- -- 59
2019-04-18 17:00:00 17.2 21 Sudeste 52 Sudeste 0 -- -- 60
2019-04-18 16:00:00 17.3 23 Sudeste 54 Sur 0 -- -- 69
2019-04-18 15:00:00 18.8 22 Sudeste 56 Sudeste 0 -- -- 54
2019-04-18 14:00:00 18 19 Sudeste 39 Sudeste 0 -- -- 53
2019-04-18 13:00:00 17.2 15 Este 40 Sudeste 0 -- -- 48
2019-04-18 12:00:00 16.3 11 Sudeste 32 Sudeste 0 -- -- 52
2019-04-18 11:00:00 15.6 12 Sudeste 33 Sudeste 0 -- -- 62
2019-04-18 10:00:00 14.7 15 Sudeste 36 Este 0 -- -- 71
2019-04-18 09:00:00 14.2 9 Sur 24 Sudeste 0 -- -- 75
2019-04-18 08:00:00 13.9 10 Sudeste 25 Este 0 -- -- 75
2019-04-18 07:00:00 13.7 10 Este 27 Sudeste 0 -- -- 76
2019-04-18 06:00:00 13.7 13 Sudeste 27 Sudeste 0 -- -- 80
2019-04-18 05:00:00 13.5 6 Sudeste 17 Sudeste 0 -- -- 83
2019-04-18 04:00:00 13.9 5 Sudeste 19 Este 0 -- -- 85
2019-04-18 03:00:00 14.1 6 Sudeste 25 Sudeste 0 -- -- 84
2019-04-18 02:00:00 14 9 Sudeste 22 Sudeste 0 -- -- 86
2019-04-18 01:00:00 14.4 13 Sudeste 26 Sudeste 0 -- -- 85
2019-04-18 00:00:00 14.5 8 Sudeste 23 Este 0 -- -- 84
2019-04-17 23:00:00 14.4 9 Este 22 Este 0 -- -- 84
2019-04-17 22:00:00 14.4 9 Este 24 Sudeste 0 -- -- 84
2019-04-17 21:00:00 14.5 6 Este 19 Este 0 -- -- 85
2019-04-17 20:00:00 14.7 4 Este 14 Sudeste 0 -- -- 83
2019-04-17 19:00:00 15 8 Sur 22 Sur 0 -- -- 81
2019-04-17 18:00:00 15.9 10 Sudeste 19 Sur 0 -- -- 76
2019-04-17 17:00:00 16.2 10 Sudeste 20 Sur 0 -- -- 73
2019-04-17 16:00:00 16.4 10 Sudeste 19 Sudeste 0 -- -- 70
2019-04-17 15:00:00 16.6 11 Sudeste 23 Sur 0 -- -- 66
2019-04-17 14:00:00 15.6 10 Sur 18 Sur 0 -- -- 72
2019-04-17 13:00:00 15.6 10 Sur 17 Sur 0 -- -- 72
2019-04-17 12:00:00 14.8 8 Sur 16 Sudeste 0 -- -- 76
2019-04-17 11:00:00 13.8 8 Sur 15 Sur 0 -- -- 84
2019-04-17 10:00:00 13.2 6 Sur 12 Sur 0 -- -- 89
2019-04-17 09:00:00 11.6 0 Calma 4 Sur 0 -- -- 98
2019-04-17 08:00:00 9.7 0 Calma 5 Sur 0 -- -- 98
2019-04-17 07:00:00 8.9 0 Calma 2 Noroeste 0 -- -- 97
2019-04-17 06:00:00 9 0 Calma 4 Noroeste 0 -- -- 97
2019-04-17 05:00:00 9.3 0 Calma 2 Noroeste 0 -- -- 97
2019-04-17 04:00:00 9.4 0 Calma 4 Noroeste 0 -- -- 96
2019-04-17 03:00:00 9.7 2 Noroeste 4 Noroeste 0 -- -- 96
2019-04-17 02:00:00 9.9 3 Noroeste 4 Noroeste 0 -- -- 95
2019-04-17 01:00:00 10.3 0 Calma 3 Noroeste 0 -- -- 94
2019-04-17 00:00:00 10.8 0 Calma 4 Noroeste 0 -- -- 92
2019-04-16 23:00:00 11.7 2 Noroeste 8 Sudeste 0 -- -- 90
2019-04-16 22:00:00 13.4 3 Sudeste 13 Sudeste 0 -- -- 86
2019-04-16 21:00:00 14 4 Este 15 Este 0 -- -- 86
2019-04-16 20:00:00 14.3 7 Sur 15 Sur 0 -- -- 86
2019-04-16 19:00:00 14.6 7 Sur 16 Sudeste 0 -- -- 84
2019-04-16 18:00:00 15.1 9 Sudeste 18 Sudeste 0 -- -- 82
2019-04-16 17:00:00 16 13 Sudeste 23 Sur 0 -- -- 78
2019-04-16 16:00:00 16.5 14 Sur 31 Sur 0 -- -- 72
2019-04-16 15:00:00 16.6 13 Sur 30 Sudeste 0 -- -- 75
2019-04-16 14:00:00 16.4 16 Sur 28 Sur 0 -- -- 76
2019-04-16 13:00:00 16.6 13 Sudeste 22 Sur 0 -- -- 74
2019-04-16 12:00:00 16.2 14 Sur 22 Sudeste 0 -- -- 73
2019-04-16 11:00:00 15.7 10 Sur 21 Sudeste 0 -- -- 71
2019-04-16 10:00:00 15.8 8 Sudeste 15 Sudeste 0 -- -- 71
2019-04-16 09:00:00 13.5 2 Oeste 11 Sur 0 -- -- 77
2019-04-16 08:00:00 11.6 0 Calma 9 Noroeste 0 -- -- 81
2019-04-16 07:00:00 10.9 0 Calma 5 Sur 0 -- -- 83
2019-04-16 06:00:00 11 3 Noroeste 8 Norte 0 -- -- 83
2019-04-16 05:00:00 10.7 3 Noroeste 6 Noroeste 0 -- -- 79
2019-04-16 04:00:00 10.3 2 Noroeste 4 Noroeste 0 -- -- 78
2019-04-16 03:00:00 10.2 0 Calma 4 Norte 0 -- -- 77
2019-04-16 02:00:00 11.2 0 Calma 6 Este 0 -- -- 73
2019-04-16 01:00:00 12.4 2 Sudoeste 8 Nordeste 0 -- -- 71
2019-04-16 00:00:00 12.6 3 Sur 18 Sudeste 0 -- -- 70
2019-04-15 23:00:00 12.2 0 Calma 15 Sudeste 0 -- -- 65
2019-04-15 22:00:00 12.9 5 Sudeste 19 Sudeste 0 -- -- 61
2019-04-15 21:00:00 13.2 7 Este 19 Este 0 -- -- 62
2019-04-15 20:00:00 13.8 4 Sudeste 17 Sur 0 -- -- 59
2019-04-15 19:00:00 14.2 6 Sudeste 22 Sudeste 0 -- -- 60
2019-04-15 18:00:00 14.5 10 Sur 23 Sur 0 -- -- 60
2019-04-15 17:00:00 14.5 13 Sur 22 Sur 0 -- -- 61
2019-04-15 16:00:00 14.7 12 Sudeste 29 Sur 0 -- -- 61
2019-04-15 15:00:00 14.6 15 Sur 26 Sur 0 -- -- 61
2019-04-15 14:00:00 14.7 13 Sur 24 Sudeste 0 -- -- 65
2019-04-15 13:00:00 15 13 Sudeste 26 Sur 0 -- -- 64
2019-04-15 12:00:00 15.1 17 Sur 28 Sur 0 -- -- 65
2019-04-15 11:00:00 15 10 Sudeste 26 Sur 0 -- -- 64
2019-04-15 10:00:00 14.5 6 Sudeste 19 Sudeste 0 -- -- 64
2019-04-15 09:00:00 13.1 8 Este 19 Sudeste 0 -- -- 69
2019-04-15 08:00:00 12.7 12 Este 28 Este 0 -- -- 74
2019-04-15 07:00:00 11.1 4 Sudeste 12 Sudeste 0 -- -- 75
2019-04-15 06:00:00 9.2 0 Calma 4 Norte 0 -- -- 85
2019-04-15 05:00:00 9.9 0 Calma 4 Noroeste 0 -- -- 84
2019-04-15 04:00:00 11.1 3 Noroeste 5 Norte 0 -- -- 81
2019-04-15 03:00:00 12.3 4 Sudeste 12 Este 0 -- -- 79
2019-04-15 02:00:00 12.5 0 Calma 11 Sur 0 -- -- 86
2019-04-15 01:00:00 13.7 4 Sudeste 14 Sur 0 -- -- 84
2019-04-15 00:00:00 13.8 5 Sudeste 14 Sudeste 0 -- -- 84
2019-04-14 23:00:00 13.9 4 Este 14 Sudeste 0 -- -- 83
2019-04-14 22:00:00 13.6 3 Sudeste 11 Sudeste 0 -- -- 82
2019-04-14 21:00:00 13.4 4 Este 15 Este 0 -- -- 82
2019-04-14 20:00:00 13.9 5 Este 17 Sudeste 0 -- -- 83
2019-04-14 19:00:00 14.9 4 Este 23 Sur 0 -- -- 80
2019-04-14 18:00:00 15.1 8 Sur 28 Sur 0 -- -- 75
2019-04-14 17:00:00 15.2 12 Sudeste 35 Sur 0 -- -- 74
2019-04-14 16:00:00 15.3 6 Sur 29 Sur 0 -- -- 77
2019-04-14 15:00:00 16 8 Sudeste 31 Sur 0 -- -- 75
2019-04-14 14:00:00 15.7 11 Sur 32 Sur 0 -- -- 78
2019-04-14 13:00:00 16.1 19 Sur 32 Sudeste 0 -- -- 77
2019-04-14 12:00:00 16.7 18 Sur 32 Sur 0 -- -- 65
2019-04-14 11:00:00 15.9 13 Sur 25 Sur 0 -- -- 64
2019-04-14 10:00:00 14 4 Sur 9 Sudoeste 0 -- -- 71
2019-04-14 09:00:00 10.5 0 Calma 4 Sur 0 -- -- 98
2019-04-14 08:00:00 8.7 0 Calma 3 Noroeste 0 -- -- 97
2019-04-14 07:00:00 8.6 0 Calma 3 Noroeste 0 -- -- 97
2019-04-14 06:00:00 8.7 0 Calma 3 Noroeste 0 -- -- 96
2019-04-14 05:00:00 9.1 0 Calma 3 Noroeste 0 -- -- 96
2019-04-14 04:00:00 9.6 0 Calma 2 Noroeste 0 -- -- 96
2019-04-14 03:00:00 9.4 0 Calma 3 Noroeste 0 -- -- 95
2019-04-14 02:00:00 9.3 0 Calma 2 Noroeste 0 -- -- 92
2019-04-14 01:00:00 9.7 2 Noroeste 4 Noroeste 0 -- -- 91
2019-04-14 00:00:00 10 0 Calma 4 Noroeste 0 -- -- 87
2019-04-13 23:00:00 10.7 0 Calma 3 Noroeste 0 -- -- 83
2019-04-13 22:00:00 11.6 0 Calma 11 Noroeste 0 -- -- 77
2019-04-13 21:00:00 13.9 5 Noroeste 14 Norte 0 -- -- 68
2019-04-13 20:00:00 15 8 Norte 19 Noroeste 0 -- -- 66
2019-04-13 19:00:00 17.3 4 Norte 13 Norte 0 -- -- 58
2019-04-13 18:00:00 17 5 Norte 14 Noroeste 0 -- -- 55
2019-04-13 17:00:00 16.8 9 Sudeste 18 Este 0 -- -- 59
2019-04-13 16:00:00 17 11 Sudeste 21 Sur 0 -- -- 55
2019-04-13 15:00:00 17.3 5 Sudoeste 22 Sudeste 0 -- -- 56
2019-04-13 14:00:00 16.9 11 Sudeste 19 Sur 0 -- -- 60
2019-04-13 13:00:00 16.7 11 Sudeste 19 Sudeste 0 -- -- 61
2019-04-13 12:00:00 16.2 10 Sudeste 22 Sur 0 -- -- 66
2019-04-13 11:00:00 17.2 5 Oeste 19 Este 0 -- -- 38
2019-04-13 10:00:00 14.9 8 Noroeste 17 Oeste 0 -- -- 45
2019-04-13 09:00:00 12.7 6 Noroeste 20 Noroeste 0 -- -- 59
2019-04-13 08:00:00 11.3 7 Norte 18 Noroeste 0 -- -- 72
2019-04-13 07:00:00 11.5 5 Norte 15 Norte 0 -- -- 78
2019-04-13 06:00:00 11.4 6 Norte 18 Norte 0 -- -- 83
2019-04-13 05:00:00 11.2 3 Norte 6 Norte 0 -- -- 86
2019-04-13 04:00:00 11.7 0 Calma 3 Sur 0 -- -- 92
2019-04-13 03:00:00 11.4 0 Calma 3 Noroeste 0 -- -- 94
2019-04-13 02:00:00 10.7 0 Calma 4 Noroeste 0 -- -- 93
2019-04-13 01:00:00 10.7 0 Calma 3 Noroeste 0 -- -- 93
2019-04-13 00:00:00 10.8 0 Calma 5 Noroeste 0 -- -- 90
2019-04-12 23:00:00 11.5 3 Noroeste 7 Sur 0 -- -- 88
2019-04-12 22:00:00 12.2 2 Noroeste 9 Sur 0 -- -- 85
2019-04-12 21:00:00 13.8 3 Sur 15 Este 0 -- -- 78
2019-04-12 20:00:00 14.6 7 Este 21 Sur 0 -- -- 76
2019-04-12 19:00:00 15 10 Sur 24 Sur 0 -- -- 74
2019-04-12 18:00:00 15.8 13 Sudeste 24 Sudeste 0 -- -- 70
2019-04-12 17:00:00 16.7 15 Sudeste 25 Sudeste 0 -- -- 66
2019-04-12 16:00:00 18.1 12 Sudeste 21 Sudeste 0 -- -- 58
2019-04-12 15:00:00 18.4 6 Oeste 25 Sudoeste 0 -- -- 58
2019-04-12 14:00:00 18.4 7 Sudeste 26 Sudoeste 0 -- -- 51
2019-04-12 13:00:00 16.7 8 Sudoeste 20 Sudoeste 0 -- -- 58
2019-04-12 12:00:00 16.6 10 Sur 18 Sur 0 -- -- 50
2019-04-12 11:00:00 15.6 10 Sur 21 Norte 0 -- -- 50
2019-04-12 10:00:00 15 6 Oeste 31 Noroeste 0 -- -- 48
2019-04-12 09:00:00 13.2 15 Noroeste 31 Oeste 0 -- -- 53
2019-04-12 08:00:00 11.5 10 Noroeste 38 Noroeste 0 -- -- 58
2019-04-12 07:00:00 11.2 19 Noroeste 33 Noroeste 0 -- -- 60
2019-04-12 06:00:00 12.3 17 Noroeste 34 Noroeste 0 -- -- 56
2019-04-12 05:00:00 13 7 Noroeste 23 Noroeste 0 -- -- 52
2019-04-12 04:00:00 13.6 6 Noroeste 21 Norte 0 -- -- 51
2019-04-12 03:00:00 10.9 3 Sur 8 Sur 0 -- -- 63
2019-04-12 02:00:00 11.4 0 Calma 4 Noroeste 0 -- -- 64
2019-04-12 01:00:00 11.8 0 Calma 4 Sur 0 -- -- 62
2019-04-12 00:00:00 12.1 2 Noroeste 7 Noroeste 0 -- -- 64
2019-04-11 23:00:00 13.3 2 Noroeste 14 Sudeste 0 -- -- 72
2019-04-11 22:00:00 14.6 0 Calma 19 Sur 0 -- -- 68
2019-04-11 21:00:00 16 8 Sudeste 26 Sudeste 0 -- -- 49
2019-04-11 20:00:00 16.5 5 Sudeste 19 Sudeste 0 -- -- 43
2019-04-11 19:00:00 17.2 7 Sudeste 25 Sudeste 0 -- -- 45
2019-04-11 18:00:00 17.2 5 Sudeste 18 Sudeste 0 -- -- 40
2019-04-11 17:00:00 18.5 10 Sudeste 20 Sudeste 0 -- -- 36
2019-04-11 16:00:00 18.6 13 Sudeste 22 Sur 0 -- -- 36
2019-04-11 15:00:00 20.1 12 Sudeste 24 Sur 0 -- -- 36
2019-04-11 14:00:00 20.2 12 Noroeste 32 Noroeste 0 -- -- 30
2019-04-11 13:00:00 18.8 12 Noroeste 32 Noroeste 0 -- -- 33
2019-04-11 12:00:00 18 14 Noroeste 32 Noroeste 0 -- -- 36
2019-04-11 11:00:00 16.4 9 Oeste 23 Oeste 0 -- -- 43
2019-04-11 10:00:00 13.4 8 Oeste 25 Noroeste 0 -- -- 52
2019-04-11 09:00:00 12.4 4 Sur 21 Noroeste 0 -- -- 56
2019-04-11 08:00:00 11.3 8 Oeste 22 Noroeste 0 -- -- 57
2019-04-11 07:00:00 11.6 12 Noroeste 26 Oeste 0 -- -- 59
2019-04-11 06:00:00 12 7 Oeste 29 Oeste 0 -- -- 59
2019-04-11 05:00:00 13.1 13 Noroeste 25 Noroeste 0 -- -- 53
2019-04-11 04:00:00 11.1 3 Noroeste 13 Noroeste 0 -- -- 71
2019-04-11 03:00:00 8.3 0 Calma 4 Noroeste 0 -- -- 88
2019-04-11 02:00:00 8.5 0 Calma 4 Noroeste 0 -- -- 86
2019-04-11 01:00:00 8.9 2 Noroeste 6 Noroeste 0 -- -- 84
2019-04-11 00:00:00 9.7 3 Norte 5 Norte 0 -- -- 83
2019-04-10 23:00:00 11.2 3 Sudoeste 14 Noroeste 0 -- -- 80
2019-04-10 22:00:00 11.7 5 Noroeste 17 Noroeste 0.2 -- -- 85
2019-04-10 21:00:00 11.4 4 Noroeste 8 Noroeste 0 -- -- 78
2019-04-10 20:00:00 12 4 Noroeste 10 Norte 0 -- -- 78
2019-04-10 19:00:00 13.7 2 Sur 12 Sudeste 0 -- -- 74
2019-04-10 18:00:00 13.4 0 Calma 17 Este 0.6 -- -- 84
2019-04-10 17:00:00 16.2 6 Norte 24 Noroeste 0 -- -- 55
2019-04-10 16:00:00 19.3 6 Norte 18 Sur 0 -- -- 45
2019-04-10 15:00:00 18.3 7 Sudoeste 19 Oeste 0 -- -- 48
2019-04-10 14:00:00 18.3 9 Sur 23 Sur 0 -- -- 56
2019-04-10 13:00:00 17.5 8 Sur 21 Sur 0 -- -- 57
2019-04-10 12:00:00 16.4 9 Sur 22 Noroeste 0 -- -- 64
2019-04-10 11:00:00 16.3 13 Noroeste 27 Noroeste 0 -- -- 52
2019-04-10 10:00:00 14.1 9 Noroeste 29 Noroeste 0 -- -- 60
2019-04-10 09:00:00 12 10 Noroeste 25 Noroeste 0 -- -- 67
2019-04-10 08:00:00 10.8 10 Noroeste 32 Noroeste 0 -- -- 72
2019-04-10 07:00:00 11.3 9 Noroeste 19 Norte 0 -- -- 70
2019-04-10 06:00:00 11.6 8 Noroeste 30 Noroeste 0 -- -- 70
2019-04-10 05:00:00 12 11 Noroeste 21 Oeste 0 -- -- 69
2019-04-10 04:00:00 11.7 5 Noroeste 13 Noroeste 0 -- -- 68
2019-04-10 03:00:00 12 2 Noroeste 21 Noroeste 0 -- -- 66
2019-04-10 02:00:00 12.8 10 Noroeste 20 Noroeste 0 -- -- 62
2019-04-10 01:00:00 12.5 5 Norte 15 Norte 0 -- -- 66
2019-04-10 00:00:00 11.5 6 Noroeste 17 Norte 0 -- -- 68
2019-04-09 23:00:00 10 0 Calma 6 Sur 0 -- -- 76
2019-04-09 22:00:00 11.1 0 Calma 5 Noroeste 0 -- -- 73
2019-04-09 21:00:00 12.6 0 Calma 14 Noroeste 0 -- -- 66
2019-04-09 20:00:00 13.8 2 Oeste 21 Sudeste 0 -- -- 61
2019-04-09 19:00:00 15.2 7 Sudeste 18 Sur 0 -- -- 71
2019-04-09 18:00:00 15.3 7 Sudeste 23 Sur 0 -- -- 75
2019-04-09 17:00:00 15.1 9 Sudeste 20 Sudeste 0 -- -- 79
2019-04-09 16:00:00 15.6 10 Sudeste 20 Sur 0 -- -- 77
2019-04-09 15:00:00 15.2 11 Sudeste 20 Sudeste 0 -- -- 79
2019-04-09 14:00:00 15 12 Sur 20 Sur 0 -- -- 79
2019-04-09 13:00:00 15.5 12 Sur 19 Sudeste 0 -- -- 75
2019-04-09 12:00:00 14.3 10 Sur 17 Sur 0 -- -- 79
2019-04-09 11:00:00 16.3 5 Sur 23 Sur 0 -- -- 56
2019-04-09 10:00:00 14.4 3 Sur 19 Sur 0 -- -- 60
2019-04-09 09:00:00 13.3 6 Sur 14 Sudeste 0 -- -- 68
2019-04-09 08:00:00 12.1 3 Oeste 17 Norte 0 -- -- 76
2019-04-09 07:00:00 10.8 3 Noroeste 5 Sudoeste 0 -- -- 91
2019-04-09 06:00:00 10.4 0 Calma 4 Noroeste 0 -- -- 92
2019-04-09 05:00:00 10.1 0 Calma 5 Noroeste 0 -- -- 93
2019-04-09 04:00:00 10 0 Calma 4 Noroeste 0 -- -- 91
2019-04-09 03:00:00 11 0 Calma 8 Norte 0 -- -- 92
2019-04-09 02:00:00 11.2 2 Noroeste 20 Oeste 0 -- -- 89
2019-04-09 01:00:00 12.1 2 Noroeste 18 Norte 0.6 -- -- 90
2019-04-09 00:00:00 12.2 2 Norte 17 Norte 0 -- -- 90
2019-04-08 23:00:00 11.5 2 Norte 4 Norte 0 -- -- 90
2019-04-08 22:00:00 12 0 Calma 4 Sur 0 -- -- 88
2019-04-08 21:00:00 13.3 2 Oeste 18 Norte 0 -- -- 79
2019-04-08 20:00:00 15 10 Norte 18 Noroeste 0 -- -- 73
2019-04-08 19:00:00 16 4 Norte 26 Norte 0 -- -- 67
2019-04-08 18:00:00 16.6 12 Norte 26 Norte 0 -- -- 65
2019-04-08 17:00:00 17.5 7 Norte 21 Sur 0 -- -- 65
2019-04-08 16:00:00 17.8 6 Sudoeste 27 Noroeste 0 -- -- 64
2019-04-08 15:00:00 17.2 6 Norte 19 Norte 0 -- -- 61
2019-04-08 14:00:00 16.6 5 Norte 19 Norte 0 -- -- 65
2019-04-08 13:00:00 16.5 6 Este 19 Sudeste 0 -- -- 61
2019-04-08 12:00:00 15.5 7 Norte 18 Noroeste 0 -- -- 66
2019-04-08 11:00:00 14 7 Sudeste 13 Sudeste 0 -- -- 76
2019-04-08 10:00:00 13.3 3 Sur 17 Noroeste 0 -- -- 77
2019-04-08 09:00:00 11.7 5 Norte 13 Noroeste 0 -- -- 69
2019-04-08 08:00:00 8.9 6 Noroeste 13 Noroeste 0 -- -- 94
2019-04-08 07:00:00 7.8 4 Noroeste 8 Noroeste 0.2 -- -- 99
2019-04-08 06:00:00 7.8 0 Calma 4 Noroeste 0 -- -- 98
2019-04-08 05:00:00 8.3 0 Calma 2 Noroeste 0 -- -- 99
2019-04-08 04:00:00 7.9 0 Calma 3 Noroeste 0 -- -- 98
2019-04-08 03:00:00 7.7 0 Calma 2 Noroeste 0 -- -- 98
2019-04-08 02:00:00 7.8 0 Calma 2 Noroeste 0 -- -- 98
2019-04-08 01:00:00 7.8 0 Calma 2 Noroeste 0 -- -- 97
2019-04-08 00:00:00 8 0 Calma 4 Noroeste 0 -- -- 96
2019-04-07 23:00:00 8.2 2 Noroeste 4 Norte 0 -- -- 95
2019-04-07 22:00:00 9.3 0 Calma 13 Noroeste 0 -- -- 94
2019-04-07 21:00:00 8.8 2 Noroeste 8 Noroeste 0 -- -- 93
2019-04-07 20:00:00 10.9 3 Noroeste 12 Este 0.2 -- -- 91
2019-04-07 19:00:00 12.2 5 Este 19 Sudeste 2.4 -- -- 88
2019-04-07 18:00:00 13.5 8 Sudeste 23 Sur 0 -- -- 70
2019-04-07 17:00:00 15.8 14 Sur 27 Sur 0 -- -- 56
2019-04-07 16:00:00 16.5 12 Sudeste 22 Sur 0 -- -- 52
2019-04-07 15:00:00 15.3 9 Sur 21 Sudeste 0 -- -- 56
2019-04-07 14:00:00 16.2 13 Sur 23 Sudeste 0 -- -- 51
2019-04-07 13:00:00 15.7 8 Sur 26 Noroeste 0 -- -- 48
2019-04-07 12:00:00 14.7 12 Noroeste 28 Noroeste 0 -- -- 54
2019-04-07 11:00:00 14 8 Noroeste 26 Noroeste 0 -- -- 56
2019-04-07 10:00:00 12.4 5 Oeste 22 Noroeste 0 -- -- 59
2019-04-07 09:00:00 10.6 12 Noroeste 23 Oeste 0 -- -- 64
2019-04-07 08:00:00 8.8 6 Noroeste 14 Noroeste 0 -- -- 71
2019-04-07 07:00:00 7.4 4 Norte 10 Noroeste 0 -- -- 76
2019-04-07 06:00:00 9.5 7 Noroeste 19 Noroeste 0 -- -- 66
2019-04-07 05:00:00 9.8 9 Noroeste 23 Noroeste 0 -- -- 65
2019-04-07 04:00:00 9.8 10 Noroeste 26 Noroeste 0 -- -- 67
2019-04-07 03:00:00 10.4 10 Noroeste 22 Noroeste 0 -- -- 64
2019-04-07 02:00:00 10.6 11 Norte 26 Norte 0 -- -- 66
2019-04-07 01:00:00 10.2 14 Norte 27 Norte 0 -- -- 76
2019-04-07 00:00:00 9 0 Calma 4 Norte 0 -- -- 92
2019-04-06 23:00:00 9.5 0 Calma 3 Noroeste 0 -- -- 88
2019-04-06 22:00:00 9.9 0 Calma 3 Noroeste 0 -- -- 84
2019-04-06 21:00:00 10.4 0 Calma 9 Nordeste 0 -- -- 77
2019-04-06 20:00:00 12.9 0 Calma 13 Oeste 0 -- -- 66
2019-04-06 19:00:00 14 5 Noroeste 22 Nordeste 0 -- -- 59
2019-04-06 18:00:00 14.7 5 Nordeste 24 Noroeste 0 -- -- 56
2019-04-06 17:00:00 16.7 7 Sudeste 19 Norte 0 -- -- 46
2019-04-06 16:00:00 15.9 8 Sudeste 22 Sudeste 0 -- -- 55
2019-04-06 15:00:00 15.9 7 Norte 24 Noroeste 0 -- -- 44
2019-04-06 14:00:00 16.3 10 Norte 34 Noroeste 0 -- -- 44
2019-04-06 13:00:00 15.5 10 Norte 35 Noroeste 0 -- -- 45
2019-04-06 12:00:00 14.1 13 Norte 35 Noroeste 0 -- -- 52
2019-04-06 11:00:00 12.3 11 Norte 31 Norte 0.2 -- -- 64
2019-04-06 10:00:00 11.2 8 Norte 25 Norte 0 -- -- 70
2019-04-06 09:00:00 9.3 11 Noroeste 25 Norte 0 -- -- 73
2019-04-06 08:00:00 6.5 4 Noroeste 16 Noroeste 0 -- -- 92
2019-04-06 07:00:00 7.9 8 Noroeste 20 Noroeste 0 -- -- 82
2019-04-06 06:00:00 8.3 9 Noroeste 25 Noroeste 0 -- -- 84
2019-04-06 05:00:00 8.9 12 Noroeste 31 Noroeste 0 -- -- 87
2019-04-06 04:00:00 9.5 3 Noroeste 8 Norte 0 -- -- 96
2019-04-06 03:00:00 9.9 0 Calma 7 Noroeste 3 -- -- 96
2019-04-06 02:00:00 10.4 5 Noroeste 13 Noroeste 0 -- -- 95
2019-04-06 01:00:00 10.5 7 Noroeste 18 Norte 0 -- -- 93
2019-04-06 00:00:00 10.5 5 Norte 18 Norte 0.6 -- -- 97
2019-04-05 23:00:00 10.3 8 Norte 36 Sudeste 9.2 -- -- 96
2019-04-05 22:00:00 13.9 20 Sudeste 37 Sudeste 0 -- -- 86
2019-04-05 21:00:00 13.9 14 Sudeste 28 Sudeste 0 -- -- 90
2019-04-05 20:00:00 14.1 12 Sudeste 28 Sudeste 0 -- -- 88
2019-04-05 19:00:00 14.4 10 Sudeste 22 Este 0 -- -- 83
2019-04-05 18:00:00 14.7 9 Este 23 Sudeste 0 -- -- 79
2019-04-05 17:00:00 14.7 8 Oeste 27 Oeste 0 -- -- 81
2019-04-05 16:00:00 15.7 6 Este 24 Oeste 0 -- -- 76
2019-04-05 15:00:00 14.8 5 Oeste 18 Oeste 0 -- -- 76
2019-04-05 14:00:00 13.5 3 Este 14 Sudeste 1 -- -- 88
2019-04-05 13:00:00 13.3 3 Noroeste 29 Oeste 0.2 -- -- 86
2019-04-05 12:00:00 15.3 12 Oeste 27 Sudoeste 0 -- -- 73
2019-04-05 11:00:00 13.5 3 Nordeste 17 Sudeste 0 -- -- 81
2019-04-05 10:00:00 11.7 3 Sudeste 6 Sudeste 0 -- -- 81
2019-04-05 09:00:00 9.1 0 Calma 6 Sudeste 0 -- -- 88
2019-04-05 08:00:00 7.3 0 Calma 4 Noroeste 0 -- -- 90
2019-04-05 07:00:00 7.1 2 Noroeste 3 Noroeste 0 -- -- 88
2019-04-05 06:00:00 6.7 0 Calma 2 Noroeste 0 -- -- 86
2019-04-05 05:00:00 6.7 0 Calma 2 Noroeste 0 -- -- 83
2019-04-05 04:00:00 6.8 0 Calma 2 Sur 0 -- -- 79
2019-04-05 03:00:00 7.3 0 Calma 3 Noroeste 0 -- -- 75
2019-04-05 02:00:00 8.8 4 Norte 10 Noroeste 0 -- -- 68
2019-04-05 01:00:00 9.6 4 Norte 12 Noroeste 0 -- -- 65
2019-04-05 00:00:00 9.9 4 Norte 19 Noroeste 0 -- -- 63
2019-04-04 23:00:00 10.2 6 Noroeste 14 Noroeste 0 -- -- 61
2019-04-04 22:00:00 11 5 Noroeste 14 Noroeste 0 -- -- 60
2019-04-04 21:00:00 12.1 8 Noroeste 30 Norte 0 -- -- 59
2019-04-04 20:00:00 13.6 9 Norte 23 Norte 0 -- -- 56
2019-04-04 19:00:00 15.4 5 Norte 16 Noroeste 0 -- -- 45
2019-04-04 18:00:00 16.7 6 Norte 23 Norte 0 -- -- 35
2019-04-04 17:00:00 16.6 6 Nordeste 19 Norte 0 -- -- 37
2019-04-04 16:00:00 16.1 7 Sur 19 Sudeste 0 -- -- 36
2019-04-04 15:00:00 15.2 10 Sudeste 22 Sur 0 -- -- 37
2019-04-04 14:00:00 13.2 9 Sudeste 21 Sudeste 0 -- -- 46
2019-04-04 13:00:00 11.6 8 Noroeste 22 Sudeste 0 -- -- 48
2019-04-04 12:00:00 11.3 10 Sudeste 18 Sudeste 0 -- -- 49
2019-04-04 11:00:00 10.6 8 Sudeste 16 Noroeste 0 -- -- 48
2019-04-04 10:00:00 8.6 3 Noroeste 12 Norte 0 -- -- 52
2019-04-04 09:00:00 6.9 5 Noroeste 18 Norte 0 -- -- 59
2019-04-04 08:00:00 5.5 10 Norte 24 Norte 0 -- -- 62
2019-04-04 07:00:00 5.7 10 Norte 23 Norte 0 -- -- 63
2019-04-04 06:00:00 6.3 6 Norte 19 Noroeste 0 -- -- 60
2019-04-04 05:00:00 6 4 Norte 10 Norte 0 -- -- 67
2019-04-04 04:00:00 4.1 2 Noroeste 5 Noroeste 0 -- -- 90
2019-04-04 03:00:00 5.1 2 Noroeste 5 Noroeste 0 -- -- 92
2019-04-04 02:00:00 6 3 Noroeste 5 Noroeste 0 -- -- 95
2019-04-04 01:00:00 6.9 3 Noroeste 6 Noroeste 0 -- -- 95
2019-04-04 00:00:00 7.5 3 Noroeste 5 Oeste 0 -- -- 94
2019-04-03 23:00:00 8.2 3 Noroeste 6 Noroeste 0 -- -- 95
2019-04-03 22:00:00 8.7 2 Noroeste 14 Noroeste 0.4 -- -- 92
2019-04-03 21:00:00 9.2 2 Noroeste 19 Noroeste 1 -- -- 88
2019-04-03 20:00:00 10.2 5 Noroeste 18 Noroeste 0.6 -- -- 84
2019-04-03 19:00:00 11.6 8 Oeste 23 Noroeste 0.4 -- -- 76
2019-04-03 18:00:00 13.8 6 Oeste 22 Noroeste 0 -- -- 61
2019-04-03 17:00:00 14.9 2 Noroeste 13 Norte 0 -- -- 81
2019-04-03 16:00:00 14.8 4 Oeste 16 Sudoeste 0 -- -- 84
2019-04-03 15:00:00 16.1 7 Sudoeste 18 Oeste 0 -- -- 76
2019-04-03 14:00:00 16.5 6 Sur 17 Sudoeste 0 -- -- 76
2019-04-03 13:00:00 15.7 8 Sur 20 Sur 0 -- -- 78
2019-04-03 12:00:00 15.5 5 Sudeste 14 Nordeste 0 -- -- 81
2019-04-03 11:00:00 14.7 4 Noroeste 15 Noroeste 0 -- -- 85
2019-04-03 10:00:00 14.8 3 Oeste 13 Sur 0 -- -- 83
2019-04-03 09:00:00 13.5 4 Sudeste 10 Sudeste 0 -- -- 94
2019-04-03 08:00:00 13.2 2 Sur 6 Sudeste 0 -- -- 95
2019-04-03 07:00:00 12.7 0 Calma 4 Sur 0 -- -- 94
2019-04-03 06:00:00 12.5 0 Calma 4 Sur 0 -- -- 94
2019-04-03 05:00:00 12.4 0 Calma 4 Sudeste 0 -- -- 93
2019-04-03 04:00:00 13.2 0 Calma 12 Sudeste 0 -- -- 92
2019-04-03 03:00:00 13.5 7 Sur 13 Sur 0 -- -- 94
2019-04-03 02:00:00 13.7 8 Sur 17 Sur 0 -- -- 93
2019-04-03 01:00:00 13.6 5 Sudeste 12 Este 0 -- -- 93
2019-04-03 00:00:00 12.3 0 Calma 5 Noroeste 0 -- -- 91
2019-04-02 23:00:00 12.6 0 Calma 5 Noroeste 0 -- -- 89
2019-04-02 22:00:00 13.6 0 Calma 7 Norte 0 -- -- 88
2019-04-02 21:00:00 14.1 3 Norte 11 Nordeste 0 -- -- 87
2019-04-02 20:00:00 14.7 5 Oeste 16 Norte 0 -- -- 85
2019-04-02 19:00:00 14.9 5 Norte 18 Noroeste 0 -- -- 82
2019-04-02 18:00:00 16.1 6 Norte 15 Nordeste 0 -- -- 78
2019-04-02 17:00:00 16.6 6 Norte 16 Este 0 -- -- 75
2019-04-02 16:00:00 16.1 5 Nordeste 16 Noroeste 0 -- -- 79
2019-04-02 15:00:00 16.2 5 Norte 21 Noroeste 0 -- -- 78
2019-04-02 14:00:00 16.3 9 Norte 26 Noroeste 0 -- -- 76
2019-04-02 13:00:00 16.1 8 Norte 23 Norte 0 -- -- 76
2019-04-02 12:00:00 15.7 9 Norte 21 Norte 0 -- -- 76
2019-04-02 11:00:00 15.5 8 Norte 24 Norte 0 -- -- 74
2019-04-02 10:00:00 14.6 8 Norte 20 Noroeste 0 -- -- 80
2019-04-02 09:00:00 13.5 6 Norte 13 Noroeste 0 -- -- 82
2019-04-02 08:00:00 12.8 5 Noroeste 16 Norte 0 -- -- 86
2019-04-02 07:00:00 12.8 8 Noroeste 15 Norte 0 -- -- 87
2019-04-02 06:00:00 12.2 7 Noroeste 14 Noroeste 0 -- -- 84
2019-04-02 05:00:00 11.6 0 Calma 12 Noroeste 0 -- -- 83
2019-04-02 04:00:00 11.1 3 Norte 13 Noroeste 0 -- -- 86
2019-04-02 03:00:00 12 4 Noroeste 10 Noroeste 0 -- -- 89
2019-04-02 02:00:00 11.4 3 Noroeste 9 Noroeste 0 -- -- 90
2019-04-02 01:00:00 11.6 0 Calma 5 Noroeste 0 -- -- 87
2019-04-02 00:00:00 11.3 0 Calma 2 Norte 0 -- -- 88
2019-04-01 23:00:00 10.7 0 Calma 2 Norte 0 -- -- 88
2019-04-01 22:00:00 10.6 0 Calma 3 Noroeste 0 -- -- 88
2019-04-01 21:00:00 11.2 2 Noroeste 4 Noroeste 0 -- -- 85
2019-04-01 20:00:00 13.1 0 Calma 5 Sur 0 -- -- 75
2019-04-01 19:00:00 14.5 2 Noroeste 12 Norte 0 -- -- 71
2019-04-01 18:00:00 16 5 Norte 15 Sudeste 0 -- -- 44
2019-04-01 17:00:00 16.3 8 Sudeste 17 Este 0 -- -- 64
2019-04-01 16:00:00 16.2 10 Sudeste 19 Sur 0 -- -- 64
2019-04-01 15:00:00 16.3 12 Sur 17 Sur 0 -- -- 65
2019-04-01 14:00:00 16 10 Sur 16 Sudeste 0 -- -- 59
2019-04-01 13:00:00 16.8 9 Sudeste 16 Sudeste 0 -- -- 53
2019-04-01 12:00:00 16.4 12 Sur 16 Sur 0 -- -- 56
2019-04-01 11:00:00 15 9 Sur 13 Sur 0 -- -- 53
2019-04-01 10:00:00 13.6 6 Sur 10 Sur 0 -- -- 66
2019-04-01 09:00:00 10.9 0 Calma 2 Noroeste 0 -- -- 66
2019-04-01 08:00:00 9.5 2 Noroeste 3 Noroeste 0 -- -- 69
2019-04-01 07:00:00 10.3 0 Calma 3 Sur 0 -- -- 68
2019-04-01 06:00:00 10.6 0 Calma 5 Noroeste 0 -- -- 66
2019-04-01 05:00:00 10.4 2 Noroeste 6 Noroeste 0 -- -- 71
2019-04-01 04:00:00 11.1 0 Calma 4 Noroeste 0 -- -- 70
2019-04-01 03:00:00 11.9 0 Calma 5 Norte 0 -- -- 71
2019-04-01 02:00:00 12.5 2 Noroeste 9 Sur 0 -- -- 70
2019-04-01 01:00:00 13.5 0 Calma 19 Sur 0 -- -- 66
2019-04-01 00:00:00 13.5 5 Sudeste 18 Sudeste 0 -- -- 67
2019-03-31 23:00:00 13.7 8 Sudeste 21 Sudeste 0 -- -- 67
2019-03-31 22:00:00 13.5 4 Este 19 Sudeste 0 -- -- 71
2019-03-31 21:00:00 13.5 8 Sudeste 19 Este 0 -- -- 75
2019-03-31 20:00:00 13.8 6 Este 23 Sudeste 0 -- -- 75
2019-03-31 19:00:00 13.9 12 Sudeste 36 Sudeste 0 -- -- 76
2019-03-31 18:00:00 14.3 15 Sudeste 34 Sudeste 0 -- -- 74
2019-03-31 17:00:00 15.1 15 Sudeste 41 Sudeste 0 -- -- 67
2019-03-31 16:00:00 15 16 Sudeste 35 Sudeste 0 -- -- 72
2019-03-31 15:00:00 15.6 17 Sudeste 37 Sudeste 0 -- -- 66
2019-03-31 14:00:00 16.6 15 Sudeste 33 Este 0 -- -- 61
2019-03-31 13:00:00 16.2 10 Sudeste 31 Sur 0 -- -- 65
2019-03-31 12:00:00 14.4 12 Sudeste 26 Sudeste 0 -- -- 70
2019-03-31 11:00:00 13.9 8 Este 26 Este 0 -- -- 73
2019-03-31 10:00:00 13.2 6 Sudeste 20 Este 0 -- -- 77
2019-03-31 09:00:00 12.6 7 Este 15 Este 0 -- -- 77
2019-03-31 08:00:00 12.6 5 Este 13 Este 0 -- -- 77
2019-03-31 07:00:00 12.4 3 Este 12 Este 0 -- -- 77
2019-03-31 06:00:00 12.2 2 Este 9 Sudeste 0 -- -- 76
2019-03-31 05:00:00 10.7 0 Calma 6 Noroeste 0 -- -- 82
2019-03-31 03:00:00 10.9 4 Norte 16 Noroeste 0 -- -- 79
2019-03-31 01:00:00 10.7 4 Noroeste 10 Noroeste 0 -- -- 81
2019-03-31 00:00:00 10.1 0 Calma 4 Nordeste 0 -- -- 86
2019-03-30 23:00:00 10.6 3 Norte 6 Nordeste 0 -- -- 82
2019-03-30 22:00:00 12.1 5 Sur 17 Sur 0 -- -- 77
2019-03-30 21:00:00 12.6 6 Sur 14 Sudeste 0 -- -- 76
2019-03-30 20:00:00 12.7 6 Este 18 Este 0 -- -- 74
2019-03-30 19:00:00 12.9 6 Este 17 Este 0 -- -- 71
2019-03-30 18:00:00 13.4 6 Sudeste 22 Sur 0 -- -- 71
2019-03-30 17:00:00 14.9 10 Sudeste 22 Sudeste 0 -- -- 63
2019-03-30 16:00:00 15.4 12 Sur 28 Sur 0 -- -- 63
2019-03-30 15:00:00 15.3 16 Sur 30 Sur 0 -- -- 66
2019-03-30 14:00:00 15.5 15 Sudeste 27 Sur 0 -- -- 65
2019-03-30 13:00:00 15.3 18 Sur 32 Sur 0 -- -- 65
2019-03-30 12:00:00 15.5 12 Sudeste 21 Sur 0 -- -- 59
2019-03-30 11:00:00 15 16 Sur 28 Sudeste 0 -- -- 59
2019-03-30 10:00:00 14.7 12 Sur 22 Sur 0 -- -- 61
2019-03-30 09:00:00 13.3 8 Este 19 Sudeste 0 -- -- 61
2019-03-30 08:00:00 8.1 0 Calma 3 Oeste 0 -- -- 89
2019-03-30 07:00:00 6.8 0 Calma 2 Noroeste 0 -- -- 90
2019-03-30 06:00:00 6.9 2 Norte 5 Norte 0 -- -- 93
2019-03-30 05:00:00 6.7 0 Calma 2 Noroeste 0 -- -- 90
2019-03-30 04:00:00 7.2 0 Calma 3 Noroeste 0 -- -- 89
2019-03-30 03:00:00 7.9 0 Calma 3 Noroeste 0 -- -- 88
2019-03-30 02:00:00 8.3 0 Calma 3 Noroeste 0 -- -- 87
2019-03-30 01:00:00 8.4 0 Calma 2 Noroeste 0 -- -- 87
2019-03-30 00:00:00 8.8 0 Calma 3 Noroeste 0 -- -- 86
2019-03-29 23:00:00 9.3 0 Calma 10 Sudeste 0 -- -- 83
2019-03-29 22:00:00 10.1 0 Calma 5 Norte 0 -- -- 78
2019-03-29 21:00:00 11.7 0 Calma 14 Sudeste 0 -- -- 71
2019-03-29 20:00:00 12.8 4 Este 14 Sudeste 0 -- -- 67
2019-03-29 19:00:00 13 4 Sudeste 21 Sudoeste 0 -- -- 69
2019-03-29 18:00:00 13.4 8 Sur 22 Sur 0 -- -- 68
2019-03-29 17:00:00 14.9 11 Sudeste 21 Sur 0 -- -- 66
2019-03-29 16:00:00 15.4 10 Sudeste 22 Sudeste 0 -- -- 58
2019-03-29 15:00:00 15.8 13 Sudeste 22 Sudeste 0 -- -- 61
2019-03-29 14:00:00 15.8 11 Sudeste 22 Sudeste 0 -- -- 60
2019-03-29 13:00:00 15.9 12 Sudeste 21 Sudeste 0 -- -- 61
2019-03-29 12:00:00 15.8 12 Sur 20 Sur 0 -- -- 61
2019-03-29 11:00:00 15.3 12 Sur 18 Sur 0 -- -- 60
2019-03-29 10:00:00 14.7 11 Sur 16 Sur 0 -- -- 53
2019-03-29 09:00:00 13.7 3 Sudeste 10 Sudeste 0 -- -- 52
2019-03-29 08:00:00 9.6 0 Calma 6 Noroeste 0 -- -- 64
2019-03-29 07:00:00 8.4 0 Calma 8 Oeste 0 -- -- 60
2019-03-29 06:00:00 9.6 3 Noroeste 12 Noroeste 0 -- -- 57
2019-03-29 05:00:00 9.2 7 Noroeste 14 Noroeste 0 -- -- 62
2019-03-29 04:00:00 8 3 Oeste 9 Noroeste 0 -- -- 73
2019-03-29 03:00:00 8.9 0 Calma 9 Oeste 0 -- -- 75
2019-03-29 02:00:00 9.9 6 Noroeste 14 Noroeste 0 -- -- 72
2019-03-29 01:00:00 7.5 0 Calma 14 Noroeste 0 -- -- 87
2019-03-29 00:00:00 7.6 0 Calma 4 Noroeste 0 -- -- 90
2019-03-28 23:00:00 8.2 0 Calma 3 Noroeste 0 -- -- 89
2019-03-28 22:00:00 8.7 0 Calma 3 Noroeste 0 -- -- 86
2019-03-28 21:00:00 9.4 0 Calma 2 Norte 0 -- -- 83
2019-03-28 20:00:00 10.1 3 Noroeste 4 Noroeste 0 -- -- 80
2019-03-28 19:00:00 11.8 0 Calma 8 Sur 0 -- -- 74
2019-03-28 18:00:00 13.5 4 Sur 13 Sur 0 -- -- 68
2019-03-28 17:00:00 14.9 8 Sur 17 Sur 0 -- -- 64
2019-03-28 16:00:00 15.5 10 Sur 17 Sudeste 0 -- -- 58
2019-03-28 15:00:00 15.8 9 Sur 17 Sur 0 -- -- 55
2019-03-28 14:00:00 16.1 10 Sur 20 Sur 0 -- -- 51
2019-03-28 13:00:00 16.3 9 Sur 18 Sur 0 -- -- 47
2019-03-28 12:00:00 16.6 10 Sudeste 19 Sur 0 -- -- 41
2019-03-28 11:00:00 16.3 13 Sur 19 Sur 0 -- -- 40
2019-03-28 10:00:00 15.6 11 Sur 16 Sudeste 0 -- -- 44
2019-03-28 09:00:00 13.9 4 Sur 9 Sudeste 0 -- -- 44
2019-03-28 08:00:00 8.3 0 Calma 3 Norte 0 -- -- 59
2019-03-28 07:00:00 6.3 0 Calma 4 Norte 0 -- -- 64
2019-03-28 06:00:00 6 0 Calma 3 Noroeste 0 -- -- 70
2019-03-28 05:00:00 6.2 0 Calma 5 Noroeste 0 -- -- 73
2019-03-28 04:00:00 6.2 0 Calma 4 Noroeste 0 -- -- 86
2019-03-28 03:00:00 6.4 0 Calma 3 Noroeste 0 -- -- 84
2019-03-28 02:00:00 7.2 0 Calma 5 Noroeste 0 -- -- 81
2019-03-28 01:00:00 8.8 2 Norte 9 Nordeste 0 -- -- 77
2019-03-28 00:00:00 8.7 2 Noroeste 8 Norte 0 -- -- 78
2019-03-27 23:00:00 8 0 Calma 4 Sur 0 -- -- 79
2019-03-27 22:00:00 8.1 0 Calma 4 Noroeste 0 -- -- 78
2019-03-27 21:00:00 8.7 0 Calma 3 Noroeste 0 -- -- 75
2019-03-27 20:00:00 9.5 2 Noroeste 5 Noroeste 0 -- -- 71
2019-03-27 19:00:00 11.9 0 Calma 12 Sudeste 0 -- -- 64
2019-03-27 18:00:00 13.4 7 Sudeste 17 Sudeste 0 -- -- 59
2019-03-27 17:00:00 14.9 12 Sur 23 Sudeste 0 -- -- 57
2019-03-27 16:00:00 15.3 15 Sudeste 26 Sudeste 0 -- -- 60
2019-03-27 15:00:00 15.9 12 Sudeste 22 Sudeste 0 -- -- 57
2019-03-27 14:00:00 15.8 4 Sudoeste 27 Sur 0 -- -- 57
2019-03-27 13:00:00 15.7 8 Nordeste 23 Sudeste 0 -- -- 60
2019-03-27 12:00:00 15.7 9 Sudoeste 18 Oeste 0 -- -- 52
2019-03-27 11:00:00 16.4 8 Sudoeste 19 Sur 0 -- -- 45
2019-03-27 10:00:00 15.5 5 Norte 16 Norte 0 -- -- 43
2019-03-27 09:00:00 13.2 2 Sudeste 5 Sur 0 -- -- 56
2019-03-27 08:00:00 7.9 0 Calma 2 Noroeste 0 -- -- 81
2019-03-27 07:00:00 6.1 0 Calma 3 Noroeste 0 -- -- 84
2019-03-27 06:00:00 6.7 0 Calma 4 Noroeste 0 -- -- 79
2019-03-27 05:00:00 7.6 0 Calma 5 Sur 0 -- -- 73
2019-03-27 04:00:00 8.3 5 Noroeste 15 Noroeste 0 -- -- 71
2019-03-27 03:00:00 9.1 0 Calma 12 Noroeste 0 -- -- 69
2019-03-27 02:00:00 10.5 5 Noroeste 17 Noroeste 0 -- -- 65
2019-03-27 01:00:00 10.4 5 Noroeste 15 Noroeste 0 -- -- 64
2019-03-27 00:00:00 10.5 5 Noroeste 13 Noroeste 0 -- -- 64